createdAt,value
2023-01-13T00:00:31.619Z,10.83
2023-01-13T00:02:59.652Z,10.85
2023-01-13T00:05:28.389Z,10.85
2023-01-13T00:07:56.348Z,10.87
2023-01-13T00:10:24.329Z,10.92
2023-01-13T00:12:53.588Z,10.90
2023-01-13T00:15:21.574Z,10.85
2023-01-13T00:17:51.071Z,10.84
2023-01-13T00:20:19.248Z,10.84
2023-01-13T00:22:47.545Z,10.82
2023-01-13T00:25:15.947Z,10.84
2023-01-13T00:27:44.091Z,10.79
2023-01-13T00:30:13.020Z,10.75
2023-01-13T00:32:40.963Z,10.79
2023-01-13T00:35:10.690Z,10.74
2023-01-13T00:37:39.406Z,10.74
2023-01-13T00:40:08.960Z,10.75
2023-01-13T00:42:54.171Z,10.75
2023-01-13T00:45:25.240Z,10.74
2023-01-13T00:47:53.057Z,10.74
2023-01-13T00:50:22.333Z,10.75
2023-01-13T00:52:50.679Z,10.74
2023-01-13T00:55:18.531Z,10.67
2023-01-13T00:57:46.367Z,10.66
2023-01-13T01:00:14.771Z,10.62
2023-01-13T01:02:42.613Z,10.56
2023-01-13T01:05:11.105Z,10.47
2023-01-13T01:07:40.339Z,10.35
2023-01-13T01:10:09.064Z,9.67
2023-01-13T01:12:37.000Z,9.41
2023-01-13T01:15:07.421Z,9.26
2023-01-13T01:17:35.296Z,8.98
2023-01-13T01:20:03.223Z,8.95
2023-01-13T01:22:31.116Z,8.92
2023-01-13T01:25:00.413Z,8.88
2023-01-13T01:27:28.330Z,8.92
2023-01-13T01:29:56.185Z,8.98
2023-01-13T01:32:24.154Z,9.13
2023-01-13T01:34:52.379Z,9.17
2023-01-13T01:37:20.283Z,9.18
2023-01-13T01:39:48.134Z,9.16
2023-01-13T01:42:36.191Z,9.16
2023-01-13T01:45:15.038Z,9.19
2023-01-13T01:47:43.942Z,9.23
2023-01-13T01:50:12.596Z,9.30
2023-01-13T01:52:44.367Z,9.34
2023-01-13T01:55:17.210Z,9.28
2023-01-13T01:57:50.721Z,9.28
2023-01-13T02:00:18.779Z,9.25
2023-01-13T02:02:49.615Z,9.24
2023-01-13T02:05:18.663Z,9.22
2023-01-13T02:07:50.126Z,9.10
2023-01-13T02:10:20.927Z,8.95
2023-01-13T02:12:51.363Z,8.88
2023-01-13T02:15:22.229Z,8.83
2023-01-13T02:18:12.663Z,8.86
2023-01-13T02:21:09.238Z,8.80
2023-01-13T02:24:23.849Z,8.74
2023-01-13T02:27:22.540Z,8.79
2023-01-13T02:30:26.366Z,8.79
2023-01-13T02:33:09.199Z,8.77
2023-01-13T02:35:46.384Z,8.76
2023-01-13T02:38:17.111Z,8.74
2023-01-13T02:40:51.166Z,8.69
2023-01-13T02:43:42.102Z,8.73
2023-01-13T02:46:16.450Z,8.73
2023-01-13T02:48:47.244Z,8.72
2023-01-13T02:51:18.538Z,8.72
2023-01-13T02:53:52.152Z,8.73
2023-01-13T02:56:24.507Z,8.72
2023-01-13T02:58:54.921Z,8.70
2023-01-13T03:01:24.313Z,8.72
2023-01-13T03:03:52.163Z,8.66
2023-01-13T03:06:38.194Z,8.64
2023-01-13T03:09:13.107Z,8.59
2023-01-13T03:11:51.736Z,8.55
2023-01-13T03:14:28.863Z,8.55
2023-01-13T03:17:11.451Z,8.53
2023-01-13T03:19:45.552Z,8.51
2023-01-13T03:22:22.770Z,8.55
2023-01-13T03:24:56.042Z,8.51
2023-01-13T03:27:31.285Z,8.51
2023-01-13T03:30:02.648Z,8.56
2023-01-13T03:32:36.861Z,8.57
2023-01-13T03:35:11.045Z,8.54
2023-01-13T03:37:43.570Z,8.50
2023-01-13T03:40:16.773Z,8.48
2023-01-13T03:43:08.143Z,8.43
2023-01-13T03:45:38.955Z,8.42
2023-01-13T03:48:11.698Z,8.41
2023-01-13T03:50:44.657Z,8.38
2023-01-13T03:53:16.155Z,8.36
2023-01-13T03:55:48.619Z,8.40
2023-01-13T03:58:20.909Z,8.30
2023-01-13T04:00:54.021Z,8.33
2023-01-13T04:03:28.119Z,8.32
2023-01-13T04:06:03.799Z,8.35
2023-01-13T04:08:32.040Z,8.34
2023-01-13T04:11:06.382Z,8.28
2023-01-13T04:13:38.929Z,8.30
2023-01-13T04:16:08.760Z,8.30
2023-01-13T04:18:40.736Z,8.30
2023-01-13T04:21:09.097Z,8.23
2023-01-13T04:23:37.028Z,8.23
2023-01-13T04:26:04.862Z,8.16
2023-01-13T04:28:33.501Z,8.13
2023-01-13T04:31:01.673Z,8.10
2023-01-13T04:33:29.600Z,8.05
2023-01-13T04:35:58.773Z,7.92
2023-01-13T04:38:26.688Z,7.93
2023-01-13T04:40:54.498Z,7.91
2023-01-13T04:43:22.380Z,7.89
2023-01-13T04:45:50.184Z,7.84
2023-01-13T04:48:18.079Z,7.85
2023-01-13T04:50:46.422Z,7.77
2023-01-13T04:53:15.649Z,7.82
2023-01-13T04:55:44.398Z,7.80
2023-01-13T04:58:12.440Z,7.73
2023-01-13T05:00:40.494Z,7.76
2023-01-13T05:03:08.261Z,7.70
2023-01-13T05:05:36.598Z,7.70
2023-01-13T05:08:05.039Z,7.69
2023-01-13T05:10:34.234Z,7.67
2023-01-13T05:13:19.577Z,7.66
2023-01-13T05:16:06.583Z,7.70
2023-01-13T05:18:34.780Z,7.68
2023-01-13T05:21:02.609Z,7.66
2023-01-13T05:23:47.795Z,7.66
2023-01-13T05:26:16.954Z,7.66
2023-01-13T05:28:44.806Z,7.74
2023-01-13T05:31:14.925Z,7.69
2023-01-13T05:33:43.067Z,7.63
2023-01-13T05:36:11.131Z,7.63
2023-01-13T05:38:38.928Z,7.56
2023-01-13T05:41:24.487Z,7.58
2023-01-13T05:43:53.683Z,7.57
2023-01-13T05:46:21.475Z,7.62
2023-01-13T05:48:49.274Z,7.64
2023-01-13T05:51:17.391Z,7.58
2023-01-13T05:53:45.202Z,7.64
2023-01-13T05:56:13.026Z,7.61
2023-01-13T05:58:40.951Z,7.62
2023-01-13T06:01:10.646Z,7.60
2023-01-13T06:03:39.019Z,7.58
2023-01-13T06:06:08.866Z,7.58
2023-01-13T06:08:39.457Z,7.62
2023-01-13T06:11:07.722Z,7.64
2023-01-13T06:13:35.619Z,7.68
2023-01-13T06:16:03.472Z,7.69
2023-01-13T06:18:32.924Z,7.60
2023-01-13T06:21:00.778Z,7.65
2023-01-13T06:23:29.292Z,7.62
2023-01-13T06:26:03.090Z,7.63
2023-01-13T06:28:30.927Z,7.61
2023-01-13T06:31:01.796Z,7.64
2023-01-13T06:33:35.020Z,7.66
2023-01-13T06:36:05.923Z,7.63
2023-01-13T06:38:38.371Z,7.62
2023-01-13T06:41:08.443Z,7.64
2023-01-13T06:43:35.676Z,7.65
2023-01-13T06:46:03.679Z,7.63
2023-01-13T06:48:35.742Z,7.63
2023-01-13T06:51:03.880Z,7.64
2023-01-13T06:53:32.059Z,7.58
2023-01-13T06:56:00.029Z,7.60
2023-01-13T06:58:28.073Z,7.63
2023-01-13T07:01:01.184Z,7.62
2023-01-13T07:03:29.212Z,7.57
2023-01-13T07:05:58.687Z,7.58
2023-01-13T07:08:26.567Z,7.57
2023-01-13T07:10:54.505Z,7.56
2023-01-13T07:13:39.997Z,7.63
2023-01-13T07:16:10.073Z,7.71
2023-01-13T07:18:37.960Z,7.69
2023-01-13T07:21:08.946Z,7.73
2023-01-13T07:23:39.477Z,7.88
2023-01-13T07:26:08.634Z,7.98
2023-01-13T07:28:36.862Z,7.93
2023-01-13T07:31:05.050Z,7.86
2023-01-13T07:33:33.374Z,7.85
2023-01-13T07:36:03.558Z,7.81
2023-01-13T07:38:33.912Z,7.81
2023-01-13T07:41:23.882Z,7.83
2023-01-13T07:43:51.920Z,7.81
2023-01-13T07:46:20.352Z,7.81
2023-01-13T07:48:48.988Z,7.84
2023-01-13T07:51:17.238Z,7.77
2023-01-13T07:53:46.514Z,7.69
2023-01-13T07:56:14.568Z,7.62
2023-01-13T07:58:42.351Z,7.54
2023-01-13T08:01:12.134Z,7.35
2023-01-13T08:03:40.207Z,7.31
2023-01-13T08:06:08.502Z,7.21
2023-01-13T08:08:36.330Z,7.24
2023-01-13T08:11:07.317Z,7.22
2023-01-13T08:13:34.865Z,7.27
2023-01-13T08:16:05.155Z,7.25
2023-01-13T08:18:35.502Z,7.16
2023-01-13T08:21:05.351Z,7.18
2023-01-13T08:23:33.381Z,7.22
2023-01-13T08:26:02.300Z,7.33
2023-01-13T08:28:32.217Z,7.37
2023-01-13T08:31:01.353Z,7.44
2023-01-13T08:33:30.081Z,7.50
2023-01-13T08:35:57.916Z,7.46
2023-01-13T08:38:26.381Z,7.60
2023-01-13T08:40:54.568Z,7.64
2023-01-13T08:43:22.370Z,7.73
2023-01-13T08:45:59.323Z,7.86
2023-01-13T08:48:30.425Z,7.80
2023-01-13T08:51:03.137Z,7.85
2023-01-13T08:53:31.497Z,8.03
2023-01-13T08:55:59.318Z,8.11
2023-01-13T08:58:27.141Z,8.43
2023-01-13T09:00:55.107Z,8.65
2023-01-13T09:03:24.360Z,8.70
2023-01-13T09:05:52.201Z,8.76
2023-01-13T09:08:20.249Z,8.53
2023-01-13T09:10:48.158Z,8.48
2023-01-13T09:13:15.410Z,8.44
2023-01-13T09:15:46.185Z,8.59
2023-01-13T09:18:14.996Z,8.53
2023-01-13T09:20:44.580Z,8.35
2023-01-13T09:23:12.503Z,8.37
2023-01-13T09:25:40.924Z,8.46
2023-01-13T09:28:09.241Z,8.80
2023-01-13T09:30:38.976Z,8.75
2023-01-13T09:33:24.546Z,8.72
2023-01-13T09:35:59.024Z,8.80
2023-01-13T09:38:26.830Z,8.88
2023-01-13T09:40:56.023Z,8.94
2023-01-13T09:43:47.446Z,9.15
2023-01-13T09:46:33.108Z,9.36
2023-01-13T09:49:03.818Z,9.42
2023-01-13T09:51:36.807Z,9.54
2023-01-13T09:54:12.479Z,9.59
2023-01-13T09:56:40.156Z,9.86
2023-01-13T09:59:11.664Z,9.56
2023-01-13T10:01:45.968Z,9.56
2023-01-13T10:04:16.239Z,9.73
2023-01-13T10:06:49.323Z,9.51
2023-01-13T10:09:23.186Z,9.68
2023-01-13T10:12:11.009Z,9.60
2023-01-13T10:14:43.981Z,9.94
2023-01-13T10:17:19.821Z,9.95
2023-01-13T10:19:51.583Z,9.94
2023-01-13T10:22:49.031Z,10.03
2023-01-13T10:25:32.864Z,10.18
2023-01-13T10:28:09.023Z,9.93
2023-01-13T10:30:40.124Z,9.71
2023-01-13T10:33:13.074Z,9.71
2023-01-13T10:36:13.656Z,9.64
2023-01-13T10:38:45.272Z,9.51
2023-01-13T10:41:24.331Z,9.49
2023-01-13T10:44:04.497Z,9.52
2023-01-13T10:46:33.937Z,9.48
2023-01-13T10:49:03.132Z,9.56
2023-01-13T10:51:43.228Z,9.86
2023-01-13T10:54:22.264Z,10.30
2023-01-13T10:56:51.343Z,10.67
2023-01-13T10:59:23.979Z,10.25
2023-01-13T11:02:02.380Z,10.07
2023-01-13T11:04:34.212Z,10.05
2023-01-13T11:07:03.824Z,9.87
2023-01-13T11:09:34.218Z,9.81
2023-01-13T11:12:03.082Z,9.75
2023-01-13T11:14:39.716Z,9.78
2023-01-13T11:17:23.394Z,9.75
2023-01-13T11:19:56.270Z,9.90
2023-01-13T11:22:29.644Z,9.74
2023-01-13T11:25:02.451Z,9.87
2023-01-13T11:27:43.440Z,9.97
2023-01-13T11:30:23.747Z,9.98
2023-01-13T11:33:05.398Z,10.19
2023-01-13T11:35:37.047Z,10.16
2023-01-13T11:38:13.615Z,9.92
2023-01-13T11:40:47.612Z,9.93
2023-01-13T11:43:22.626Z,9.86
2023-01-13T11:45:53.493Z,9.87
2023-01-13T11:48:27.113Z,9.99
2023-01-13T11:51:01.417Z,9.93
2023-01-13T11:53:45.666Z,10.09
2023-01-13T11:56:31.482Z,10.13
2023-01-13T11:59:22.352Z,10.81
2023-01-13T12:02:05.883Z,10.58
2023-01-13T12:04:44.814Z,10.27
2023-01-13T12:07:22.992Z,10.18
2023-01-13T12:10:03.906Z,10.00
2023-01-13T12:12:49.517Z,9.84
2023-01-13T12:15:28.799Z,9.30
2023-01-13T12:18:12.536Z,8.88
2023-01-13T12:20:48.355Z,9.13
2023-01-13T12:23:26.302Z,9.13
2023-01-13T12:25:58.629Z,9.24
2023-01-13T12:28:33.542Z,9.26
2023-01-13T12:31:03.064Z,9.32
2023-01-13T12:33:44.247Z,9.36
2023-01-13T12:36:18.846Z,9.18
2023-01-13T12:38:50.618Z,9.35
2023-01-13T12:41:32.098Z,9.40
2023-01-13T12:44:20.234Z,9.52
2023-01-13T12:46:53.397Z,9.42
2023-01-13T12:49:27.535Z,9.36
2023-01-13T12:52:10.316Z,9.24
2023-01-13T12:55:09.045Z,9.28
2023-01-13T12:57:39.450Z,9.23
2023-01-13T13:00:19.242Z,9.24
2023-01-13T13:03:19.370Z,9.23
2023-01-13T13:05:55.930Z,9.19
2023-01-13T13:08:32.275Z,9.16
2023-01-13T13:11:34.891Z,9.16
2023-01-13T13:14:04.527Z,9.26
2023-01-13T13:16:50.170Z,9.14
2023-01-13T13:19:42.981Z,9.15
2023-01-13T13:22:35.800Z,9.16
2023-01-13T13:25:23.335Z,9.12
2023-01-13T13:28:00.099Z,9.02
2023-01-13T13:30:31.368Z,8.81
2023-01-13T13:33:20.585Z,8.60
2023-01-13T13:36:02.728Z,8.53
2023-01-13T13:39:09.715Z,8.41
2023-01-13T13:42:00.815Z,8.47
2023-01-13T13:44:58.359Z,8.43
2023-01-13T13:47:26.354Z,8.43
2023-01-13T13:49:56.399Z,8.35
2023-01-13T13:52:30.450Z,8.32
2023-01-13T13:55:05.223Z,8.33
2023-01-13T13:57:39.549Z,8.31
2023-01-13T14:00:20.111Z,8.30
2023-01-13T14:02:51.871Z,8.18
2023-01-13T14:05:23.897Z,8.10
2023-01-13T14:08:01.595Z,8.07
2023-01-13T14:10:32.408Z,8.06
2023-01-13T14:13:02.649Z,7.88
2023-01-13T14:15:35.780Z,7.96
2023-01-13T14:18:06.268Z,7.88
2023-01-13T14:20:36.854Z,7.83
2023-01-13T14:23:05.681Z,7.80
2023-01-13T14:25:39.438Z,7.78
2023-01-13T14:28:24.297Z,7.72
2023-01-13T14:30:53.003Z,7.64
2023-01-13T14:33:35.300Z,7.62
2023-01-13T14:36:16.872Z,7.63
2023-01-13T14:38:47.539Z,7.57
2023-01-13T14:41:28.804Z,7.58
2023-01-13T14:43:59.531Z,7.56
2023-01-13T14:46:38.294Z,7.60
2023-01-13T14:49:06.312Z,7.62
2023-01-13T14:51:35.571Z,7.68
2023-01-13T14:54:03.613Z,7.64
2023-01-13T14:56:40.085Z,7.61
2023-01-13T14:59:37.651Z,7.60
2023-01-13T15:02:47.319Z,7.60
2023-01-13T15:05:36.747Z,7.52
2023-01-13T15:08:26.398Z,7.56
2023-01-13T15:10:59.671Z,7.53
2023-01-13T15:13:35.251Z,7.55
2023-01-13T15:16:06.063Z,7.63
2023-01-13T15:18:35.759Z,7.61
2023-01-13T15:21:04.180Z,7.63
2023-01-13T15:23:33.327Z,7.73
2023-01-13T15:26:01.612Z,7.64
2023-01-13T15:28:29.814Z,7.62
2023-01-13T15:31:00.635Z,7.64
2023-01-13T15:33:28.608Z,7.72
2023-01-13T15:35:56.616Z,7.68
2023-01-13T15:38:25.494Z,7.66
2023-01-13T15:40:54.913Z,7.64
2023-01-13T15:43:41.992Z,7.57
2023-01-13T15:46:34.044Z,7.53
2023-01-13T15:49:08.713Z,7.51
2023-01-13T15:51:36.732Z,7.48
2023-01-13T15:54:04.676Z,7.48
2023-01-13T15:56:37.173Z,7.52
2023-01-13T15:59:05.379Z,7.51
2023-01-13T16:01:33.272Z,7.59
2023-01-13T16:04:01.342Z,7.57
2023-01-13T16:06:33.576Z,7.56
2023-01-13T16:09:02.967Z,7.59
2023-01-13T16:11:32.907Z,7.58
2023-01-13T16:14:01.006Z,7.60
2023-01-13T16:16:30.146Z,7.65
2023-01-13T16:18:58.290Z,7.65
2023-01-13T16:21:26.248Z,7.56
2023-01-13T16:23:54.099Z,7.57
2023-01-13T16:26:24.860Z,7.63
2023-01-13T16:28:56.513Z,7.67
2023-01-13T16:31:27.439Z,7.68
2023-01-13T16:33:55.288Z,7.75
2023-01-13T16:36:23.357Z,7.78
2023-01-13T16:38:52.920Z,7.82
2023-01-13T16:41:21.182Z,7.82
2023-01-13T16:43:49.670Z,7.80
2023-01-13T16:46:25.436Z,7.83
2023-01-13T16:48:54.808Z,7.80
2023-01-13T16:51:23.555Z,7.86
2023-01-13T16:53:52.154Z,7.85
2023-01-13T16:56:25.923Z,7.86
2023-01-13T16:58:55.393Z,7.81
2023-01-13T17:01:26.799Z,7.78
2023-01-13T17:03:55.970Z,7.78
2023-01-13T17:06:27.504Z,7.74
2023-01-13T17:08:57.466Z,7.72
2023-01-13T17:11:25.297Z,7.72
2023-01-13T17:13:53.116Z,7.62
2023-01-13T17:16:24.364Z,7.63
2023-01-13T17:18:54.022Z,7.61
2023-01-13T17:21:22.529Z,7.61
2023-01-13T17:23:50.477Z,7.63
2023-01-13T17:26:32.192Z,7.61
2023-01-13T17:29:01.188Z,7.61
2023-01-13T17:31:29.869Z,7.62
2023-01-13T17:33:59.493Z,7.62
2023-01-13T17:36:27.294Z,7.65
2023-01-13T17:38:55.976Z,7.62
2023-01-13T17:41:24.253Z,7.63
2023-01-13T17:43:52.871Z,7.65
2023-01-13T17:46:22.807Z,7.64
2023-01-13T17:48:52.727Z,7.63
2023-01-13T17:51:25.028Z,7.66
2023-01-13T17:53:54.522Z,7.63
2023-01-13T17:56:22.435Z,7.63
2023-01-13T17:58:50.223Z,7.65
2023-01-13T18:01:20.564Z,7.64
2023-01-13T18:03:48.800Z,7.65
2023-01-13T18:06:19.058Z,7.67
2023-01-13T18:08:49.290Z,7.70
2023-01-13T18:11:18.848Z,7.68
2023-01-13T18:13:49.449Z,7.74
2023-01-13T18:16:19.633Z,7.77
2023-01-13T18:18:49.506Z,7.82
2023-01-13T18:21:37.846Z,7.81
2023-01-13T18:24:29.278Z,7.87
2023-01-13T18:27:14.577Z,7.84
2023-01-13T18:29:42.418Z,7.89
2023-01-13T18:32:10.205Z,7.89
2023-01-13T18:34:38.431Z,7.88
2023-01-13T18:37:08.235Z,7.88
2023-01-13T18:39:38.287Z,7.89
2023-01-13T18:42:25.382Z,7.89
2023-01-13T18:44:54.174Z,7.95
2023-01-13T18:47:21.977Z,8.05
2023-01-13T18:49:49.837Z,7.97
2023-01-13T18:52:17.644Z,7.99
2023-01-13T18:54:47.405Z,8.04
2023-01-13T18:57:15.215Z,8.05
2023-01-13T18:59:43.156Z,8.07
2023-01-13T19:02:15.851Z,8.04
2023-01-13T19:04:43.997Z,8.03
2023-01-13T19:07:13.281Z,7.97
2023-01-13T19:09:42.456Z,7.96
2023-01-13T19:12:14.521Z,7.94
2023-01-13T19:14:44.631Z,7.92
2023-01-13T19:17:14.168Z,7.92
2023-01-13T19:19:43.875Z,7.91
2023-01-13T19:22:13.047Z,7.89
2023-01-13T19:24:41.961Z,7.90
2023-01-13T19:27:14.949Z,7.87
2023-01-13T19:29:51.329Z,7.89
2023-01-13T19:32:21.937Z,7.94
2023-01-13T19:34:51.172Z,7.97
2023-01-13T19:37:20.377Z,8.05
2023-01-13T19:39:48.285Z,8.06
2023-01-13T19:42:35.472Z,8.09
2023-01-13T19:45:24.592Z,8.07
2023-01-13T19:47:52.449Z,8.04
2023-01-13T19:50:20.602Z,8.06
2023-01-13T19:52:48.520Z,8.04
2023-01-13T19:55:16.473Z,8.00
2023-01-13T19:57:45.732Z,8.01
2023-01-13T20:00:18.315Z,7.98
2023-01-13T20:02:49.164Z,7.98
2023-01-13T20:05:22.487Z,7.97
2023-01-13T20:07:51.255Z,7.97
2023-01-13T20:10:20.777Z,7.97
2023-01-13T20:12:50.107Z,8.01
2023-01-13T20:15:18.271Z,8.00
2023-01-13T20:17:46.510Z,8.03
2023-01-13T20:20:15.756Z,8.01
2023-01-13T20:22:44.771Z,8.00
2023-01-13T20:25:16.541Z,7.98
2023-01-13T20:27:44.803Z,7.99
2023-01-13T20:30:15.095Z,7.99
2023-01-13T20:32:43.722Z,7.96
2023-01-13T20:35:12.600Z,7.97
2023-01-13T20:37:41.645Z,7.97
2023-01-13T20:40:11.895Z,7.98
2023-01-13T20:42:45.102Z,8.01
2023-01-13T20:45:20.548Z,8.02
2023-01-13T20:47:48.770Z,7.97
2023-01-13T20:50:17.625Z,7.97
2023-01-13T20:52:46.493Z,7.92
2023-01-13T20:55:14.819Z,7.87
2023-01-13T20:57:42.799Z,7.98
2023-01-13T21:00:11.685Z,7.96
2023-01-13T21:02:42.025Z,7.91
2023-01-13T21:05:10.203Z,7.89
2023-01-13T21:07:38.124Z,7.87
2023-01-13T21:10:06.954Z,7.89
2023-01-13T21:12:52.505Z,7.85
2023-01-13T21:15:21.880Z,7.81
2023-01-13T21:18:10.273Z,7.82
2023-01-13T21:20:39.444Z,7.85
2023-01-13T21:23:07.521Z,7.80
2023-01-13T21:25:37.221Z,7.87
2023-01-13T21:28:07.650Z,7.80
2023-01-13T21:30:36.259Z,7.83
2023-01-13T21:33:06.392Z,7.84
2023-01-13T21:35:34.631Z,7.83
2023-01-13T21:38:02.657Z,7.81
2023-01-13T21:40:30.571Z,7.80
2023-01-13T21:43:15.682Z,7.80
2023-01-13T21:46:00.994Z,7.77
2023-01-13T21:48:34.374Z,7.78
2023-01-13T21:51:02.714Z,7.75
2023-01-13T21:53:30.631Z,7.73
2023-01-13T21:55:58.549Z,7.76
2023-01-13T21:58:26.368Z,7.73
2023-01-13T22:00:54.435Z,7.75
2023-01-13T22:03:22.600Z,7.74
2023-01-13T22:05:56.649Z,7.70
2023-01-13T22:08:24.707Z,7.73
2023-01-13T22:10:58.501Z,7.77
2023-01-13T22:13:44.867Z,7.79
2023-01-13T22:16:13.135Z,7.84
2023-01-13T22:18:41.255Z,7.79
2023-01-13T22:21:10.964Z,7.78
2023-01-13T22:23:39.023Z,7.81
2023-01-13T22:26:08.260Z,7.79
2023-01-13T22:28:40.714Z,7.78
2023-01-13T22:31:10.810Z,7.81
2023-01-13T22:33:39.287Z,7.83
2023-01-13T22:36:08.205Z,7.79
2023-01-13T22:38:37.417Z,7.82
2023-01-13T22:41:07.249Z,7.80
2023-01-13T22:43:36.008Z,7.82
2023-01-13T22:46:07.785Z,7.79
2023-01-13T22:48:36.031Z,7.76
2023-01-13T22:51:06.463Z,7.73
2023-01-13T22:53:34.889Z,7.72
2023-01-13T22:56:04.901Z,7.71
2023-01-13T22:58:32.927Z,7.69
2023-01-13T23:01:08.774Z,7.65
2023-01-13T23:03:36.815Z,7.65
2023-01-13T23:06:05.167Z,7.68
2023-01-13T23:08:33.741Z,7.69
2023-01-13T23:11:03.891Z,7.63
2023-01-13T23:13:31.735Z,7.63
2023-01-13T23:16:03.299Z,7.57
2023-01-13T23:18:31.187Z,7.62
2023-01-13T23:21:03.891Z,7.55
2023-01-13T23:23:32.444Z,7.54
2023-01-13T23:26:00.389Z,7.56
2023-01-13T23:28:29.666Z,7.52
2023-01-13T23:30:57.775Z,7.54
2023-01-13T23:33:25.796Z,7.55
2023-01-13T23:35:57.176Z,7.45
2023-01-13T23:38:25.229Z,7.48
2023-01-13T23:40:53.116Z,7.42
2023-01-13T23:43:21.032Z,7.42
2023-01-13T23:45:50.329Z,7.43
2023-01-13T23:48:18.641Z,7.36
2023-01-13T23:50:57.751Z,7.38
2023-01-13T23:53:30.962Z,7.34
2023-01-13T23:55:59.292Z,7.29
2023-01-13T23:58:28.200Z,7.26
